sensor_id;sensor_type;location;lat;lon;timestamp;P1;durP1;ratioP1;P2;durP2;ratioP2
18822;SDS011;9540;51.550;7.980;2023-07-13T00:01:46;3.42;;;2.80;;
18822;SDS011;9540;51.550;7.980;2023-07-13T00:04:14;5.65;;;2.33;;
18822;SDS011;9540;51.550;7.980;2023-07-13T00:06:42;4.65;;;2.70;;
18822;SDS011;9540;51.550;7.980;2023-07-13T00:09:11;3.78;;;2.80;;
18822;SDS011;9540;51.550;7.980;2023-07-13T00:11:40;5.22;;;3.05;;
18822;SDS011;9540;51.550;7.980;2023-07-13T00:14:07;5.63;;;2.95;;
18822;SDS011;9540;51.550;7.980;2023-07-13T00:16:36;6.15;;;2.97;;
18822;SDS011;9540;51.550;7.980;2023-07-13T00:19:05;4.75;;;2.80;;
18822;SDS011;9540;51.550;7.980;2023-07-13T00:21:33;6.47;;;2.45;;
18822;SDS011;9540;51.550;7.980;2023-07-13T00:24:00;6.60;;;2.42;;
18822;SDS011;9540;51.550;7.980;2023-07-13T00:26:28;10.38;;;2.65;;
18822;SDS011;9540;51.550;7.980;2023-07-13T00:28:56;6.80;;;3.00;;
18822;SDS011;9540;51.550;7.980;2023-07-13T00:31:23;4.85;;;2.40;;
18822;SDS011;9540;51.550;7.980;2023-07-13T00:33:50;6.28;;;2.60;;
18822;SDS011;9540;51.550;7.980;2023-07-13T00:36:17;7.60;;;2.78;;
18822;SDS011;9540;51.550;7.980;2023-07-13T00:38:45;5.18;;;2.50;;
18822;SDS011;9540;51.550;7.980;2023-07-13T00:41:13;5.88;;;2.40;;
18822;SDS011;9540;51.550;7.980;2023-07-13T00:43:40;5.07;;;2.70;;
18822;SDS011;9540;51.550;7.980;2023-07-13T00:46:16;4.03;;;2.40;;
18822;SDS011;9540;51.550;7.980;2023-07-13T00:48:48;4.32;;;2.33;;
18822;SDS011;9540;51.550;7.980;2023-07-13T00:51:17;3.55;;;1.90;;
18822;SDS011;9540;51.550;7.980;2023-07-13T00:53:48;7.78;;;2.70;;
18822;SDS011;9540;51.550;7.980;2023-07-13T00:56:17;4.70;;;2.35;;
18822;SDS011;9540;51.550;7.980;2023-07-13T00:58:44;3.10;;;2.00;;
18822;SDS011;9540;51.550;7.980;2023-07-13T01:01:11;5.68;;;2.05;;
18822;SDS011;9540;51.550;7.980;2023-07-13T01:03:40;8.02;;;2.10;;
18822;SDS011;9540;51.550;7.980;2023-07-13T01:06:07;3.10;;;1.80;;
18822;SDS011;9540;51.550;7.980;2023-07-13T01:08:35;9.45;;;1.88;;
18822;SDS011;9540;51.550;7.980;2023-07-13T01:11:02;6.07;;;1.73;;
18822;SDS011;9540;51.550;7.980;2023-07-13T01:13:29;7.93;;;2.42;;
18822;SDS011;9540;51.550;7.980;2023-07-13T01:15:57;3.83;;;1.95;;
18822;SDS011;9540;51.550;7.980;2023-07-13T01:18:29;3.95;;;2.03;;
18822;SDS011;9540;51.550;7.980;2023-07-13T01:20:58;2.85;;;1.90;;
18822;SDS011;9540;51.550;7.980;2023-07-13T01:23:27;3.45;;;1.73;;
18822;SDS011;9540;51.550;7.980;2023-07-13T01:25:55;3.28;;;2.00;;
18822;SDS011;9540;51.550;7.980;2023-07-13T01:28:24;3.88;;;1.90;;
18822;SDS011;9540;51.550;7.980;2023-07-13T01:30:53;4.38;;;1.70;;
18822;SDS011;9540;51.550;7.980;2023-07-13T01:33:21;4.20;;;2.00;;
18822;SDS011;9540;51.550;7.980;2023-07-13T01:35:48;4.75;;;2.00;;
18822;SDS011;9540;51.550;7.980;2023-07-13T01:38:19;2.80;;;1.73;;
18822;SDS011;9540;51.550;7.980;2023-07-13T01:40:47;4.95;;;1.70;;
18822;SDS011;9540;51.550;7.980;2023-07-13T01:43:14;3.72;;;1.92;;
18822;SDS011;9540;51.550;7.980;2023-07-13T01:45:41;7.15;;;2.13;;
18822;SDS011;9540;51.550;7.980;2023-07-13T01:48:09;6.97;;;2.15;;
18822;SDS011;9540;51.550;7.980;2023-07-13T01:50:37;5.47;;;1.98;;
18822;SDS011;9540;51.550;7.980;2023-07-13T01:53:04;9.15;;;1.95;;
18822;SDS011;9540;51.550;7.980;2023-07-13T01:55:33;3.95;;;2.05;;
18822;SDS011;9540;51.550;7.980;2023-07-13T01:58:00;5.35;;;1.95;;
18822;SDS011;9540;51.550;7.980;2023-07-13T02:00:27;9.35;;;2.47;;
18822;SDS011;9540;51.550;7.980;2023-07-13T02:02:54;5.93;;;1.98;;
18822;SDS011;9540;51.550;7.980;2023-07-13T02:05:21;2.60;;;1.73;;
18822;SDS011;9540;51.550;7.980;2023-07-13T02:07:49;3.65;;;1.77;;
18822;SDS011;9540;51.550;7.980;2023-07-13T02:10:18;6.70;;;1.88;;
18822;SDS011;9540;51.550;7.980;2023-07-13T02:12:47;5.57;;;2.00;;
18822;SDS011;9540;51.550;7.980;2023-07-13T02:15:16;5.10;;;2.00;;
18822;SDS011;9540;51.550;7.980;2023-07-13T02:17:43;8.70;;;1.67;;
18822;SDS011;9540;51.550;7.980;2023-07-13T02:20:10;5.40;;;1.88;;
18822;SDS011;9540;51.550;7.980;2023-07-13T02:22:37;9.77;;;2.47;;
18822;SDS011;9540;51.550;7.980;2023-07-13T02:25:04;5.43;;;2.03;;
18822;SDS011;9540;51.550;7.980;2023-07-13T02:27:32;3.47;;;1.50;;
18822;SDS011;9540;51.550;7.980;2023-07-13T02:30:00;8.73;;;1.65;;
18822;SDS011;9540;51.550;7.980;2023-07-13T02:32:28;2.72;;;1.70;;
18822;SDS011;9540;51.550;7.980;2023-07-13T02:34:55;7.95;;;1.75;;
18822;SDS011;9540;51.550;7.980;2023-07-13T02:37:22;6.78;;;1.70;;
18822;SDS011;9540;51.550;7.980;2023-07-13T02:39:49;5.80;;;1.80;;
18822;SDS011;9540;51.550;7.980;2023-07-13T02:42:16;4.55;;;1.60;;
18822;SDS011;9540;51.550;7.980;2023-07-13T02:44:43;5.10;;;1.90;;
18822;SDS011;9540;51.550;7.980;2023-07-13T02:47:11;5.95;;;1.67;;
18822;SDS011;9540;51.550;7.980;2023-07-13T02:49:39;8.25;;;2.05;;
18822;SDS011;9540;51.550;7.980;2023-07-13T02:52:06;5.03;;;1.48;;
18822;SDS011;9540;51.550;7.980;2023-07-13T02:54:33;3.40;;;1.80;;
18822;SDS011;9540;51.550;7.980;2023-07-13T02:57:00;7.45;;;2.30;;
18822;SDS011;9540;51.550;7.980;2023-07-13T02:59:26;5.78;;;1.90;;
18822;SDS011;9540;51.550;7.980;2023-07-13T03:01:53;7.72;;;2.00;;
18822;SDS011;9540;51.550;7.980;2023-07-13T03:04:22;4.97;;;1.80;;
18822;SDS011;9540;51.550;7.980;2023-07-13T03:06:49;4.65;;;1.67;;
18822;SDS011;9540;51.550;7.980;2023-07-13T03:09:16;5.78;;;1.95;;
18822;SDS011;9540;51.550;7.980;2023-07-13T03:11:43;9.40;;;1.67;;
18822;SDS011;9540;51.550;7.980;2023-07-13T03:14:10;3.25;;;1.60;;
18822;SDS011;9540;51.550;7.980;2023-07-13T03:16:37;8.60;;;1.52;;
18822;SDS011;9540;51.550;7.980;2023-07-13T03:19:04;7.85;;;1.90;;
18822;SDS011;9540;51.550;7.980;2023-07-13T03:21:33;7.22;;;1.88;;
18822;SDS011;9540;51.550;7.980;2023-07-13T03:24:00;7.47;;;1.83;;
18822;SDS011;9540;51.550;7.980;2023-07-13T03:26:27;3.80;;;1.85;;
18822;SDS011;9540;51.550;7.980;2023-07-13T03:28:54;7.53;;;1.92;;
18822;SDS011;9540;51.550;7.980;2023-07-13T03:31:22;8.25;;;2.00;;
18822;SDS011;9540;51.550;7.980;2023-07-13T03:33:50;5.95;;;2.42;;
18822;SDS011;9540;51.550;7.980;2023-07-13T03:36:18;3.80;;;1.90;;
18822;SDS011;9540;51.550;7.980;2023-07-13T03:38:49;2.85;;;1.65;;
18822;SDS011;9540;51.550;7.980;2023-07-13T03:41:18;5.70;;;2.17;;
18822;SDS011;9540;51.550;7.980;2023-07-13T03:43:46;8.55;;;2.17;;
18822;SDS011;9540;51.550;7.980;2023-07-13T03:46:13;5.10;;;1.52;;
18822;SDS011;9540;51.550;7.980;2023-07-13T03:48:41;6.75;;;1.80;;
18822;SDS011;9540;51.550;7.980;2023-07-13T03:51:09;9.07;;;2.22;;
18822;SDS011;9540;51.550;7.980;2023-07-13T03:53:39;6.88;;;1.73;;
18822;SDS011;9540;51.550;7.980;2023-07-13T03:56:08;4.13;;;1.83;;
18822;SDS011;9540;51.550;7.980;2023-07-13T03:58:36;5.85;;;1.83;;
18822;SDS011;9540;51.550;7.980;2023-07-13T04:01:06;7.30;;;2.47;;
18822;SDS011;9540;51.550;7.980;2023-07-13T04:03:34;6.13;;;1.80;;
18822;SDS011;9540;51.550;7.980;2023-07-13T04:06:01;6.43;;;1.65;;
18822;SDS011;9540;51.550;7.980;2023-07-13T04:08:32;3.72;;;1.85;;
18822;SDS011;9540;51.550;7.980;2023-07-13T04:11:01;9.90;;;1.88;;
18822;SDS011;9540;51.550;7.980;2023-07-13T04:13:30;3.45;;;1.67;;
18822;SDS011;9540;51.550;7.980;2023-07-13T04:15:57;3.25;;;1.55;;
18822;SDS011;9540;51.550;7.980;2023-07-13T04:18:24;3.85;;;1.92;;
18822;SDS011;9540;51.550;7.980;2023-07-13T04:20:51;6.63;;;2.03;;
18822;SDS011;9540;51.550;7.980;2023-07-13T04:23:19;8.80;;;2.20;;
18822;SDS011;9540;51.550;7.980;2023-07-13T04:25:46;8.82;;;2.08;;
18822;SDS011;9540;51.550;7.980;2023-07-13T04:28:14;4.25;;;1.60;;
18822;SDS011;9540;51.550;7.980;2023-07-13T04:30:44;3.25;;;1.45;;
18822;SDS011;9540;51.550;7.980;2023-07-13T04:33:11;4.43;;;2.08;;
18822;SDS011;9540;51.550;7.980;2023-07-13T04:35:38;4.60;;;2.50;;
18822;SDS011;9540;51.550;7.980;2023-07-13T04:38:05;8.13;;;2.20;;
18822;SDS011;9540;51.550;7.980;2023-07-13T04:40:32;5.57;;;1.83;;
18822;SDS011;9540;51.550;7.980;2023-07-13T04:42:59;4.05;;;1.70;;
18822;SDS011;9540;51.550;7.980;2023-07-13T04:45:26;5.03;;;1.73;;
18822;SDS011;9540;51.550;7.980;2023-07-13T04:47:54;5.65;;;1.60;;
18822;SDS011;9540;51.550;7.980;2023-07-13T04:50:21;6.97;;;2.00;;
18822;SDS011;9540;51.550;7.980;2023-07-13T04:52:49;3.00;;;1.70;;
18822;SDS011;9540;51.550;7.980;2023-07-13T04:55:17;6.95;;;2.38;;
18822;SDS011;9540;51.550;7.980;2023-07-13T04:57:44;5.70;;;2.03;;
18822;SDS011;9540;51.550;7.980;2023-07-13T05:00:12;6.25;;;1.90;;
18822;SDS011;9540;51.550;7.980;2023-07-13T05:02:42;6.00;;;1.75;;
18822;SDS011;9540;51.550;7.980;2023-07-13T05:05:12;2.53;;;1.50;;
18822;SDS011;9540;51.550;7.980;2023-07-13T05:07:39;5.90;;;2.10;;
18822;SDS011;9540;51.550;7.980;2023-07-13T05:10:07;4.45;;;1.70;;
18822;SDS011;9540;51.550;7.980;2023-07-13T05:12:35;5.45;;;2.35;;
18822;SDS011;9540;51.550;7.980;2023-07-13T05:15:02;7.50;;;1.92;;
18822;SDS011;9540;51.550;7.980;2023-07-13T05:17:29;5.60;;;1.90;;
18822;SDS011;9540;51.550;7.980;2023-07-13T05:19:56;7.72;;;1.50;;
18822;SDS011;9540;51.550;7.980;2023-07-13T05:22:25;4.45;;;2.03;;
18822;SDS011;9540;51.550;7.980;2023-07-13T05:24:52;8.93;;;2.22;;
18822;SDS011;9540;51.550;7.980;2023-07-13T05:27:19;9.52;;;1.75;;
18822;SDS011;9540;51.550;7.980;2023-07-13T05:29:46;4.95;;;1.70;;
18822;SDS011;9540;51.550;7.980;2023-07-13T05:32:13;9.02;;;2.05;;
18822;SDS011;9540;51.550;7.980;2023-07-13T05:34:40;4.68;;;2.30;;
18822;SDS011;9540;51.550;7.980;2023-07-13T05:37:07;5.28;;;2.22;;
18822;SDS011;9540;51.550;7.980;2023-07-13T05:39:36;10.98;;;2.03;;
18822;SDS011;9540;51.550;7.980;2023-07-13T05:42:06;4.85;;;1.77;;
18822;SDS011;9540;51.550;7.980;2023-07-13T05:44:33;3.17;;;1.50;;
18822;SDS011;9540;51.550;7.980;2023-07-13T05:47:00;6.78;;;1.70;;
18822;SDS011;9540;51.550;7.980;2023-07-13T05:49:27;4.68;;;1.63;;
18822;SDS011;9540;51.550;7.980;2023-07-13T05:51:55;7.18;;;2.00;;
18822;SDS011;9540;51.550;7.980;2023-07-13T05:54:22;5.30;;;1.88;;
18822;SDS011;9540;51.550;7.980;2023-07-13T05:56:51;5.68;;;1.90;;
18822;SDS011;9540;51.550;7.980;2023-07-13T05:59:18;7.20;;;1.90;;
18822;SDS011;9540;51.550;7.980;2023-07-13T06:01:45;8.25;;;1.80;;
18822;SDS011;9540;51.550;7.980;2023-07-13T06:04:12;3.10;;;1.73;;
18822;SDS011;9540;51.550;7.980;2023-07-13T06:06:39;3.47;;;1.92;;
18822;SDS011;9540;51.550;7.980;2023-07-13T06:09:06;6.25;;;1.83;;
18822;SDS011;9540;51.550;7.980;2023-07-13T06:11:33;7.68;;;2.40;;
18822;SDS011;9540;51.550;7.980;2023-07-13T06:14:01;4.53;;;2.03;;
18822;SDS011;9540;51.550;7.980;2023-07-13T06:16:29;6.40;;;1.90;;
18822;SDS011;9540;51.550;7.980;2023-07-13T06:18:56;6.60;;;2.33;;
18822;SDS011;9540;51.550;7.980;2023-07-13T06:21:23;4.70;;;2.28;;
18822;SDS011;9540;51.550;7.980;2023-07-13T06:23:54;10.88;;;2.22;;
18822;SDS011;9540;51.550;7.980;2023-07-13T06:26:21;10.10;;;2.00;;
18822;SDS011;9540;51.550;7.980;2023-07-13T06:28:48;7.32;;;2.13;;
18822;SDS011;9540;51.550;7.980;2023-07-13T06:31:17;6.72;;;2.10;;
18822;SDS011;9540;51.550;7.980;2023-07-13T06:33:44;5.07;;;1.92;;
18822;SDS011;9540;51.550;7.980;2023-07-13T06:36:11;7.22;;;2.40;;
18822;SDS011;9540;51.550;7.980;2023-07-13T06:38:38;7.20;;;2.22;;
18822;SDS011;9540;51.550;7.980;2023-07-13T06:41:06;7.75;;;2.20;;
18822;SDS011;9540;51.550;7.980;2023-07-13T06:43:34;5.72;;;2.05;;
18822;SDS011;9540;51.550;7.980;2023-07-13T06:46:01;7.35;;;2.50;;
18822;SDS011;9540;51.550;7.980;2023-07-13T06:48:29;11.40;;;2.67;;
18822;SDS011;9540;51.550;7.980;2023-07-13T06:50:56;16.20;;;3.70;;
18822;SDS011;9540;51.550;7.980;2023-07-13T06:53:24;3.85;;;1.80;;
18822;SDS011;9540;51.550;7.980;2023-07-13T06:55:50;7.13;;;2.15;;
18822;SDS011;9540;51.550;7.980;2023-07-13T06:58:18;6.85;;;2.20;;
18822;SDS011;9540;51.550;7.980;2023-07-13T07:00:46;7.18;;;2.53;;
18822;SDS011;9540;51.550;7.980;2023-07-13T07:03:16;9.18;;;2.25;;
18822;SDS011;9540;51.550;7.980;2023-07-13T07:05:45;6.88;;;2.15;;
18822;SDS011;9540;51.550;7.980;2023-07-13T07:08:12;7.80;;;2.55;;
18822;SDS011;9540;51.550;7.980;2023-07-13T07:10:39;6.70;;;2.60;;
18822;SDS011;9540;51.550;7.980;2023-07-13T07:13:07;3.55;;;1.98;;
18822;SDS011;9540;51.550;7.980;2023-07-13T07:15:34;5.47;;;2.50;;
18822;SDS011;9540;51.550;7.980;2023-07-13T07:18:02;7.05;;;2.60;;
18822;SDS011;9540;51.550;7.980;2023-07-13T07:20:29;8.98;;;2.38;;
18822;SDS011;9540;51.550;7.980;2023-07-13T07:22:59;10.02;;;2.10;;
18822;SDS011;9540;51.550;7.980;2023-07-13T07:25:26;7.43;;;2.35;;
18822;SDS011;9540;51.550;7.980;2023-07-13T07:27:56;11.40;;;2.55;;
18822;SDS011;9540;51.550;7.980;2023-07-13T07:30:24;10.02;;;2.45;;
18822;SDS011;9540;51.550;7.980;2023-07-13T07:32:51;6.10;;;2.30;;
18822;SDS011;9540;51.550;7.980;2023-07-13T07:35:17;7.22;;;2.67;;
18822;SDS011;9540;51.550;7.980;2023-07-13T07:37:45;8.10;;;2.50;;
18822;SDS011;9540;51.550;7.980;2023-07-13T07:40:14;9.18;;;2.03;;
18822;SDS011;9540;51.550;7.980;2023-07-13T07:42:41;11.77;;;3.17;;
18822;SDS011;9540;51.550;7.980;2023-07-13T07:45:08;7.93;;;2.20;;
18822;SDS011;9540;51.550;7.980;2023-07-13T07:47:36;7.97;;;2.35;;
18822;SDS011;9540;51.550;7.980;2023-07-13T07:50:04;3.40;;;2.58;;
18822;SDS011;9540;51.550;7.980;2023-07-13T07:52:32;11.07;;;2.65;;
18822;SDS011;9540;51.550;7.980;2023-07-13T07:54:59;7.18;;;2.53;;
18822;SDS011;9540;51.550;7.980;2023-07-13T07:57:27;6.43;;;2.40;;
18822;SDS011;9540;51.550;7.980;2023-07-13T07:59:54;5.28;;;2.00;;
18822;SDS011;9540;51.550;7.980;2023-07-13T08:02:21;7.15;;;2.25;;
18822;SDS011;9540;51.550;7.980;2023-07-13T08:04:48;9.95;;;2.20;;
18822;SDS011;9540;51.550;7.980;2023-07-13T08:07:15;6.47;;;2.30;;
18822;SDS011;9540;51.550;7.980;2023-07-13T08:09:42;6.03;;;2.67;;
18822;SDS011;9540;51.550;7.980;2023-07-13T08:12:09;7.97;;;2.65;;
18822;SDS011;9540;51.550;7.980;2023-07-13T08:14:37;11.10;;;2.70;;
18822;SDS011;9540;51.550;7.980;2023-07-13T08:17:04;9.38;;;2.40;;
18822;SDS011;9540;51.550;7.980;2023-07-13T08:19:32;5.80;;;2.53;;
18822;SDS011;9540;51.550;7.980;2023-07-13T08:21:59;6.75;;;2.42;;
18822;SDS011;9540;51.550;7.980;2023-07-13T08:24:27;12.10;;;4.03;;
18822;SDS011;9540;51.550;7.980;2023-07-13T08:26:54;3.92;;;1.92;;
18822;SDS011;9540;51.550;7.980;2023-07-13T08:29:21;11.23;;;2.83;;
18822;SDS011;9540;51.550;7.980;2023-07-13T08:31:50;6.07;;;2.55;;
18822;SDS011;9540;51.550;7.980;2023-07-13T08:34:17;6.97;;;2.45;;
18822;SDS011;9540;51.550;7.980;2023-07-13T08:36:44;3.85;;;2.20;;
18822;SDS011;9540;51.550;7.980;2023-07-13T08:39:11;13.88;;;2.92;;
18822;SDS011;9540;51.550;7.980;2023-07-13T08:41:39;10.45;;;2.50;;
18822;SDS011;9540;51.550;7.980;2023-07-13T08:44:07;5.15;;;2.55;;
18822;SDS011;9540;51.550;7.980;2023-07-13T08:46:45;7.03;;;2.42;;
18822;SDS011;9540;51.550;7.980;2023-07-13T08:49:16;9.70;;;2.30;;
18822;SDS011;9540;51.550;7.980;2023-07-13T08:51:50;8.98;;;2.85;;
18822;SDS011;9540;51.550;7.980;2023-07-13T08:54:21;4.85;;;1.90;;
18822;SDS011;9540;51.550;7.980;2023-07-13T08:56:53;5.97;;;2.15;;
18822;SDS011;9540;51.550;7.980;2023-07-13T08:59:24;4.20;;;1.90;;
18822;SDS011;9540;51.550;7.980;2023-07-13T09:02:02;6.88;;;2.05;;
18822;SDS011;9540;51.550;7.980;2023-07-13T09:04:45;8.18;;;2.22;;
18822;SDS011;9540;51.550;7.980;2023-07-13T09:07:24;8.77;;;2.17;;
18822;SDS011;9540;51.550;7.980;2023-07-13T09:10:02;9.57;;;2.47;;
18822;SDS011;9540;51.550;7.980;2023-07-13T09:12:40;8.57;;;2.17;;
18822;SDS011;9540;51.550;7.980;2023-07-13T09:15:21;10.90;;;2.58;;
18822;SDS011;9540;51.550;7.980;2023-07-13T09:17:52;6.70;;;2.53;;
18822;SDS011;9540;51.550;7.980;2023-07-13T09:20:25;10.60;;;2.30;;
18822;SDS011;9540;51.550;7.980;2023-07-13T09:22:55;6.25;;;2.05;;
18822;SDS011;9540;51.550;7.980;2023-07-13T09:25:26;3.28;;;1.60;;
18822;SDS011;9540;51.550;7.980;2023-07-13T09:27:57;4.30;;;1.63;;
18822;SDS011;9540;51.550;7.980;2023-07-13T09:30:30;5.13;;;2.08;;
18822;SDS011;9540;51.550;7.980;2023-07-13T09:33:00;7.75;;;2.15;;
18822;SDS011;9540;51.550;7.980;2023-07-13T09:35:28;4.97;;;1.88;;
18822;SDS011;9540;51.550;7.980;2023-07-13T09:38:01;4.53;;;1.48;;
18822;SDS011;9540;51.550;7.980;2023-07-13T09:40:40;8.10;;;2.10;;
18822;SDS011;9540;51.550;7.980;2023-07-13T09:43:24;7.20;;;2.20;;
18822;SDS011;9540;51.550;7.980;2023-07-13T09:45:53;8.55;;;1.70;;
18822;SDS011;9540;51.550;7.980;2023-07-13T09:48:22;9.02;;;2.03;;
18822;SDS011;9540;51.550;7.980;2023-07-13T09:50:51;5.53;;;1.88;;
18822;SDS011;9540;51.550;7.980;2023-07-13T09:53:21;6.72;;;1.60;;
18822;SDS011;9540;51.550;7.980;2023-07-13T09:55:49;4.10;;;1.70;;
18822;SDS011;9540;51.550;7.980;2023-07-13T09:58:17;4.40;;;1.85;;
18822;SDS011;9540;51.550;7.980;2023-07-13T10:00:53;7.40;;;1.83;;
18822;SDS011;9540;51.550;7.980;2023-07-13T10:03:23;3.88;;;2.25;;
18822;SDS011;9540;51.550;7.980;2023-07-13T10:05:53;11.23;;;1.88;;
18822;SDS011;9540;51.550;7.980;2023-07-13T10:08:23;6.43;;;2.42;;
18822;SDS011;9540;51.550;7.980;2023-07-13T10:10:54;7.63;;;2.40;;
18822;SDS011;9540;51.550;7.980;2023-07-13T10:13:26;4.78;;;2.30;;
18822;SDS011;9540;51.550;7.980;2023-07-13T10:15:56;5.07;;;1.92;;
18822;SDS011;9540;51.550;7.980;2023-07-13T10:18:25;4.88;;;1.98;;
18822;SDS011;9540;51.550;7.980;2023-07-13T10:20:55;7.25;;;2.55;;
18822;SDS011;9540;51.550;7.980;2023-07-13T10:23:35;2.95;;;1.60;;
18822;SDS011;9540;51.550;7.980;2023-07-13T10:26:02;10.80;;;2.00;;
18822;SDS011;9540;51.550;7.980;2023-07-13T10:28:31;8.80;;;2.10;;
18822;SDS011;9540;51.550;7.980;2023-07-13T10:31:02;3.15;;;1.75;;
18822;SDS011;9540;51.550;7.980;2023-07-13T10:33:35;3.85;;;1.80;;
18822;SDS011;9540;51.550;7.980;2023-07-13T10:36:05;4.03;;;1.88;;
18822;SDS011;9540;51.550;7.980;2023-07-13T10:38:40;5.90;;;1.92;;
18822;SDS011;9540;51.550;7.980;2023-07-13T10:41:08;3.72;;;1.60;;
18822;SDS011;9540;51.550;7.980;2023-07-13T10:43:41;9.88;;;2.65;;
18822;SDS011;9540;51.550;7.980;2023-07-13T10:46:11;8.95;;;2.00;;
18822;SDS011;9540;51.550;7.980;2023-07-13T10:48:42;9.35;;;1.95;;
18822;SDS011;9540;51.550;7.980;2023-07-13T10:51:14;4.72;;;1.48;;
18822;SDS011;9540;51.550;7.980;2023-07-13T10:53:46;7.63;;;2.90;;
18822;SDS011;9540;51.550;7.980;2023-07-13T10:56:20;5.75;;;2.00;;
18822;SDS011;9540;51.550;7.980;2023-07-13T10:59:01;5.03;;;2.47;;
18822;SDS011;9540;51.550;7.980;2023-07-13T11:01:39;4.35;;;1.80;;
18822;SDS011;9540;51.550;7.980;2023-07-13T11:04:12;5.55;;;2.08;;
18822;SDS011;9540;51.550;7.980;2023-07-13T11:06:42;4.55;;;1.92;;
18822;SDS011;9540;51.550;7.980;2023-07-13T11:09:30;6.50;;;1.98;;
18822;SDS011;9540;51.550;7.980;2023-07-13T11:11:59;7.22;;;1.75;;
18822;SDS011;9540;51.550;7.980;2023-07-13T11:14:32;6.63;;;1.73;;
18822;SDS011;9540;51.550;7.980;2023-07-13T11:20:08;5.07;;;1.67;;
18822;SDS011;9540;51.550;7.980;2023-07-13T11:22:52;5.07;;;1.70;;
18822;SDS011;9540;51.550;7.980;2023-07-13T11:25:33;4.47;;;1.60;;
18822;SDS011;9540;51.550;7.980;2023-07-13T11:28:22;6.28;;;1.77;;
18822;SDS011;9540;51.550;7.980;2023-07-13T11:30:59;9.13;;;1.92;;
18822;SDS011;9540;51.550;7.980;2023-07-13T11:33:30;9.43;;;2.10;;
18822;SDS011;9540;51.550;7.980;2023-07-13T11:36:18;6.75;;;2.17;;
18822;SDS011;9540;51.550;7.980;2023-07-13T11:38:51;5.57;;;1.95;;
18822;SDS011;9540;51.550;7.980;2023-07-13T11:41:26;3.72;;;2.30;;
18822;SDS011;9540;51.550;7.980;2023-07-13T11:44:05;6.25;;;2.30;;
18822;SDS011;9540;51.550;7.980;2023-07-13T11:46:34;8.40;;;2.60;;
18822;SDS011;9540;51.550;7.980;2023-07-13T11:49:04;4.78;;;2.03;;
18822;SDS011;9540;51.550;7.980;2023-07-13T11:51:33;6.25;;;1.77;;
18822;SDS011;9540;51.550;7.980;2023-07-13T11:54:05;3.35;;;1.70;;
18822;SDS011;9540;51.550;7.980;2023-07-13T11:56:33;11.40;;;2.72;;
18822;SDS011;9540;51.550;7.980;2023-07-13T11:59:03;7.22;;;2.45;;
18822;SDS011;9540;51.550;7.980;2023-07-13T12:01:32;10.18;;;2.17;;
18822;SDS011;9540;51.550;7.980;2023-07-13T12:04:04;7.55;;;1.83;;
18822;SDS011;9540;51.550;7.980;2023-07-13T12:06:32;7.38;;;1.90;;
18822;SDS011;9540;51.550;7.980;2023-07-13T12:09:03;5.38;;;1.98;;
18822;SDS011;9540;51.550;7.980;2023-07-13T12:11:39;3.83;;;1.65;;
18822;SDS011;9540;51.550;7.980;2023-07-13T12:14:12;3.67;;;1.90;;
18822;SDS011;9540;51.550;7.980;2023-07-13T12:16:41;5.53;;;1.70;;
18822;SDS011;9540;51.550;7.980;2023-07-13T12:19:14;4.57;;;1.50;;
18822;SDS011;9540;51.550;7.980;2023-07-13T12:21:46;2.58;;;1.70;;
18822;SDS011;9540;51.550;7.980;2023-07-13T12:24:16;7.50;;;1.88;;
18822;SDS011;9540;51.550;7.980;2023-07-13T12:26:44;5.70;;;1.63;;
18822;SDS011;9540;51.550;7.980;2023-07-13T12:29:17;5.03;;;1.80;;
18822;SDS011;9540;51.550;7.980;2023-07-13T12:31:44;6.97;;;1.90;;
18822;SDS011;9540;51.550;7.980;2023-07-13T12:34:13;4.70;;;1.55;;
18822;SDS011;9540;51.550;7.980;2023-07-13T12:36:47;6.82;;;2.10;;
18822;SDS011;9540;51.550;7.980;2023-07-13T12:39:21;7.18;;;1.92;;
18822;SDS011;9540;51.550;7.980;2023-07-13T12:42:10;6.10;;;2.03;;
18822;SDS011;9540;51.550;7.980;2023-07-13T12:44:45;3.55;;;1.70;;
18822;SDS011;9540;51.550;7.980;2023-07-13T12:47:15;7.05;;;1.67;;
18822;SDS011;9540;51.550;7.980;2023-07-13T12:49:47;2.88;;;1.20;;
18822;SDS011;9540;51.550;7.980;2023-07-13T12:52:17;5.00;;;1.40;;
18822;SDS011;9540;51.550;7.980;2023-07-13T12:54:56;5.68;;;1.60;;
18822;SDS011;9540;51.550;7.980;2023-07-13T12:57:25;8.63;;;1.88;;
18822;SDS011;9540;51.550;7.980;2023-07-13T12:59:53;10.32;;;2.05;;
18822;SDS011;9540;51.550;7.980;2023-07-13T13:02:26;5.35;;;1.95;;
18822;SDS011;9540;51.550;7.980;2023-07-13T13:04:56;3.17;;;1.50;;
18822;SDS011;9540;51.550;7.980;2023-07-13T13:07:25;4.43;;;1.52;;
18822;SDS011;9540;51.550;7.980;2023-07-13T13:09:52;3.83;;;1.77;;
18822;SDS011;9540;51.550;7.980;2023-07-13T13:12:21;3.65;;;1.73;;
18822;SDS011;9540;51.550;7.980;2023-07-13T13:14:51;4.55;;;1.50;;
18822;SDS011;9540;51.550;7.980;2023-07-13T13:17:19;2.88;;;1.30;;
18822;SDS011;9540;51.550;7.980;2023-07-13T13:19:50;2.80;;;1.17;;
18822;SDS011;9540;51.550;7.980;2023-07-13T13:22:18;3.80;;;1.42;;
18822;SDS011;9540;51.550;7.980;2023-07-13T13:24:45;5.70;;;2.15;;
18822;SDS011;9540;51.550;7.980;2023-07-13T13:27:17;2.35;;;1.52;;
18822;SDS011;9540;51.550;7.980;2023-07-13T13:29:49;6.45;;;1.83;;
18822;SDS011;9540;51.550;7.980;2023-07-13T13:32:17;5.38;;;1.75;;
18822;SDS011;9540;51.550;7.980;2023-07-13T13:34:45;9.18;;;1.95;;
18822;SDS011;9540;51.550;7.980;2023-07-13T13:37:16;2.00;;;1.30;;
18822;SDS011;9540;51.550;7.980;2023-07-13T13:39:45;4.15;;;1.63;;
18822;SDS011;9540;51.550;7.980;2023-07-13T13:42:12;5.00;;;1.55;;
18822;SDS011;9540;51.550;7.980;2023-07-13T13:44:40;4.10;;;1.40;;
18822;SDS011;9540;51.550;7.980;2023-07-13T13:47:12;9.60;;;2.03;;
18822;SDS011;9540;51.550;7.980;2023-07-13T13:49:49;4.25;;;1.50;;
18822;SDS011;9540;51.550;7.980;2023-07-13T13:52:17;2.75;;;1.73;;
18822;SDS011;9540;51.550;7.980;2023-07-13T13:54:44;4.00;;;1.85;;
18822;SDS011;9540;51.550;7.980;2023-07-13T13:57:11;3.15;;;1.65;;
18822;SDS011;9540;51.550;7.980;2023-07-13T13:59:38;2.65;;;1.40;;
18822;SDS011;9540;51.550;7.980;2023-07-13T14:02:15;5.15;;;1.60;;
18822;SDS011;9540;51.550;7.980;2023-07-13T14:04:49;7.07;;;1.92;;
18822;SDS011;9540;51.550;7.980;2023-07-13T14:07:20;7.05;;;1.90;;
18822;SDS011;9540;51.550;7.980;2023-07-13T14:09:46;5.00;;;1.80;;
18822;SDS011;9540;51.550;7.980;2023-07-13T14:12:13;8.55;;;1.77;;
18822;SDS011;9540;51.550;7.980;2023-07-13T14:14:40;10.95;;;1.90;;
18822;SDS011;9540;51.550;7.980;2023-07-13T14:17:12;13.52;;;1.98;;
18822;SDS011;9540;51.550;7.980;2023-07-13T14:19:46;13.93;;;2.17;;
18822;SDS011;9540;51.550;7.980;2023-07-13T14:22:16;6.65;;;2.10;;
18822;SDS011;9540;51.550;7.980;2023-07-13T14:24:43;9.35;;;2.55;;
18822;SDS011;9540;51.550;7.980;2023-07-13T14:27:10;7.57;;;1.85;;
18822;SDS011;9540;51.550;7.980;2023-07-13T14:29:39;7.05;;;2.10;;
18822;SDS011;9540;51.550;7.980;2023-07-13T14:32:08;4.82;;;2.47;;
18822;SDS011;9540;51.550;7.980;2023-07-13T14:34:38;4.90;;;2.75;;
18822;SDS011;9540;51.550;7.980;2023-07-13T14:37:05;5.75;;;2.63;;
18822;SDS011;9540;51.550;7.980;2023-07-13T14:39:38;9.10;;;3.13;;
18822;SDS011;9540;51.550;7.980;2023-07-13T14:42:05;6.30;;;3.35;;
18822;SDS011;9540;51.550;7.980;2023-07-13T14:44:35;5.20;;;3.35;;
18822;SDS011;9540;51.550;7.980;2023-07-13T14:47:04;5.13;;;3.90;;
18822;SDS011;9540;51.550;7.980;2023-07-13T14:49:34;8.23;;;4.22;;
18822;SDS011;9540;51.550;7.980;2023-07-13T14:52:08;7.30;;;4.32;;
18822;SDS011;9540;51.550;7.980;2023-07-13T14:54:38;6.63;;;4.80;;
18822;SDS011;9540;51.550;7.980;2023-07-13T14:57:07;11.55;;;5.28;;
18822;SDS011;9540;51.550;7.980;2023-07-13T14:59:35;9.73;;;5.03;;
18822;SDS011;9540;51.550;7.980;2023-07-13T15:02:03;9.07;;;4.95;;
18822;SDS011;9540;51.550;7.980;2023-07-13T15:04:42;5.50;;;4.65;;
18822;SDS011;9540;51.550;7.980;2023-07-13T15:07:10;10.00;;;5.22;;
18822;SDS011;9540;51.550;7.980;2023-07-13T15:09:38;11.60;;;6.25;;
18822;SDS011;9540;51.550;7.980;2023-07-13T15:12:06;10.55;;;6.32;;
18822;SDS011;9540;51.550;7.980;2023-07-13T15:14:34;9.20;;;5.72;;
18822;SDS011;9540;51.550;7.980;2023-07-13T15:17:01;9.88;;;6.13;;